createdAt,value
2022-12-12T00:01:29.703Z,8.40
2022-12-12T00:03:57.877Z,7.27
2022-12-12T00:06:26.191Z,9.13
2022-12-12T00:08:54.767Z,11.40
2022-12-12T00:11:26.818Z,11.53
2022-12-12T00:13:55.363Z,10.70
2022-12-12T00:16:25.799Z,12.87
2022-12-12T00:18:54.241Z,15.13
2022-12-12T00:21:24.723Z,14.93
2022-12-12T00:23:56.905Z,11.63
2022-12-12T00:26:26.492Z,13.40
2022-12-12T00:28:54.798Z,13.47
2022-12-12T00:35:02.913Z,18.80
2022-12-12T00:37:30.842Z,17.80
2022-12-12T00:39:58.709Z,13.70
2022-12-12T00:42:27.340Z,19.03
2022-12-12T00:44:55.180Z,18.10
2022-12-12T00:47:23.125Z,19.10
2022-12-12T00:49:50.968Z,21.17
2022-12-12T00:52:20.233Z,20.83
2022-12-12T00:54:48.255Z,18.90
2022-12-12T00:57:16.185Z,21.20
2022-12-12T00:59:44.035Z,17.57
2022-12-12T01:02:12.437Z,18.60
2022-12-12T01:04:40.316Z,21.37
2022-12-12T01:07:08.231Z,17.73
2022-12-12T01:09:37.601Z,19.67
2022-12-12T01:12:05.703Z,20.10
2022-12-12T01:14:34.276Z,19.97
2022-12-12T01:17:02.220Z,20.73
2022-12-12T01:19:31.335Z,17.73
2022-12-12T01:21:59.478Z,19.17
2022-12-12T01:24:27.387Z,23.93
2022-12-12T01:26:56.687Z,18.13
2022-12-12T01:29:24.490Z,19.63
2022-12-12T01:31:52.455Z,13.50
2022-12-12T01:34:20.308Z,12.40
2022-12-12T01:36:48.106Z,11.33
2022-12-12T01:39:15.965Z,13.07
2022-12-12T01:41:44.687Z,12.60
2022-12-12T01:44:43.794Z,17.60
2022-12-12T01:47:13.046Z,17.73
2022-12-12T01:49:43.312Z,15.80
2022-12-12T01:52:14.860Z,15.00
2022-12-12T01:54:46.467Z,16.40
2022-12-12T01:57:17.683Z,14.67
2022-12-12T01:59:48.030Z,22.77
2022-12-12T02:02:16.007Z,20.40
2022-12-12T02:04:44.419Z,20.03
2022-12-12T02:07:12.604Z,21.20
2022-12-12T02:09:41.079Z,22.43
2022-12-12T02:12:09.065Z,34.17
2022-12-12T02:14:39.461Z,33.20
2022-12-12T02:17:52.311Z,24.53
2022-12-12T02:20:49.970Z,26.77
2022-12-12T02:23:53.195Z,25.27
2022-12-12T02:26:57.968Z,23.43
2022-12-12T02:30:08.169Z,22.30
2022-12-12T02:33:07.846Z,30.47
2022-12-12T02:35:45.418Z,23.60
2022-12-12T02:38:22.708Z,24.03
2022-12-12T02:41:01.483Z,15.67
2022-12-12T02:43:36.716Z,18.30
2022-12-12T02:46:09.468Z,20.33
2022-12-12T02:48:44.160Z,22.00
2022-12-12T02:51:15.015Z,21.77
2022-12-12T02:53:42.864Z,18.70
2022-12-12T02:56:45.740Z,12.07
2022-12-12T02:59:17.809Z,11.20
2022-12-12T03:02:12.499Z,10.23
2022-12-12T03:05:15.024Z,5.93
2022-12-12T03:07:52.724Z,5.67
2022-12-12T03:10:38.220Z,7.33
2022-12-12T03:13:12.866Z,7.37
2022-12-12T03:15:48.602Z,7.60
2022-12-12T03:18:25.659Z,9.40
2022-12-12T03:20:58.311Z,8.83
2022-12-12T03:23:30.042Z,7.80
2022-12-12T03:26:02.816Z,10.83
2022-12-12T03:28:35.809Z,12.37
2022-12-12T03:31:07.632Z,7.00
2022-12-12T03:40:28.639Z,5.90
2022-12-12T03:43:01.566Z,5.20
2022-12-12T03:45:35.530Z,6.30
2022-12-12T03:48:09.294Z,8.73
2022-12-12T03:50:43.677Z,3.93
2022-12-12T03:53:16.160Z,6.40
2022-12-12T03:55:50.175Z,6.43
2022-12-12T03:58:23.577Z,4.37
2022-12-12T04:00:54.636Z,5.40
2022-12-12T04:03:28.354Z,5.03
2022-12-12T04:06:19.285Z,7.47
2022-12-12T04:09:02.152Z,6.30
2022-12-12T04:11:55.311Z,6.30
2022-12-12T04:14:57.514Z,4.23
2022-12-12T04:17:34.866Z,5.73
2022-12-12T04:20:27.366Z,4.50
2022-12-12T04:23:35.959Z,5.67
2022-12-12T04:26:27.575Z,8.50
2022-12-12T04:29:03.979Z,8.53
2022-12-12T04:31:35.925Z,9.33
2022-12-12T04:34:08.771Z,12.67
2022-12-12T04:36:37.710Z,17.40
2022-12-12T04:39:08.160Z,14.43
2022-12-12T04:41:38.787Z,11.67
2022-12-12T04:44:11.766Z,9.33
2022-12-12T04:46:41.550Z,5.70
2022-12-12T04:49:15.226Z,4.23
2022-12-12T04:51:46.187Z,10.90
2022-12-12T04:54:22.647Z,9.87
2022-12-12T04:56:54.651Z,14.17
2022-12-12T04:59:24.650Z,12.13
2022-12-12T05:01:58.491Z,22.77
2022-12-12T05:04:32.083Z,15.87
2022-12-12T05:07:03.596Z,25.00
2022-12-12T05:09:31.802Z,21.43
2022-12-12T05:12:00.255Z,16.13
2022-12-12T05:14:31.057Z,14.40
2022-12-12T05:17:04.408Z,13.33
2022-12-12T05:19:32.351Z,16.77
2022-12-12T05:22:00.211Z,23.80
2022-12-12T05:24:31.968Z,17.13
2022-12-12T05:27:00.451Z,18.27
2022-12-12T05:29:29.615Z,23.67
2022-12-12T05:31:57.902Z,28.00
2022-12-12T05:34:25.739Z,21.70
2022-12-12T05:36:53.770Z,17.23
2022-12-12T05:39:22.170Z,20.50
2022-12-12T05:41:50.862Z,18.00
2022-12-12T05:44:18.667Z,19.60
2022-12-12T05:46:47.867Z,20.27
2022-12-12T05:49:15.731Z,16.47
2022-12-12T05:51:46.827Z,21.70
2022-12-12T05:54:14.735Z,21.00
2022-12-12T05:56:42.610Z,19.87
2022-12-12T05:59:10.452Z,14.30
2022-12-12T06:01:38.310Z,20.17
2022-12-12T06:04:07.957Z,22.13
2022-12-12T06:06:35.892Z,27.23
2022-12-12T06:09:03.728Z,16.20
2022-12-12T06:11:31.603Z,22.03
2022-12-12T06:14:01.624Z,25.83
2022-12-12T06:16:29.551Z,25.60
2022-12-12T06:18:57.653Z,26.33
2022-12-12T06:21:26.892Z,21.37
2022-12-12T06:23:54.779Z,19.40
2022-12-12T06:26:23.112Z,19.87
2022-12-12T06:28:51.333Z,17.93
2022-12-12T06:31:19.322Z,16.80
2022-12-12T06:33:47.280Z,21.00
2022-12-12T06:36:22.502Z,16.20
2022-12-12T06:38:52.748Z,22.80
2022-12-12T06:41:21.632Z,20.93
2022-12-12T06:43:50.179Z,19.13
2022-12-12T06:46:20.321Z,18.43
2022-12-12T06:48:48.515Z,33.33
2022-12-12T06:51:18.428Z,28.70
2022-12-12T06:53:46.302Z,27.50
2022-12-12T06:56:17.817Z,15.90
2022-12-12T06:58:46.008Z,20.00
2022-12-12T07:01:16.241Z,22.27
2022-12-12T07:03:44.484Z,16.17
2022-12-12T07:06:12.493Z,21.47
2022-12-12T07:08:40.454Z,28.83
2022-12-12T07:11:11.366Z,20.40
2022-12-12T07:13:40.624Z,28.87
2022-12-12T07:16:09.268Z,37.47
2022-12-12T07:18:37.679Z,48.93
2022-12-12T07:21:06.626Z,27.13
2022-12-12T07:23:34.786Z,25.63
2022-12-12T07:26:09.774Z,25.37
2022-12-12T07:28:38.555Z,33.87
2022-12-12T07:31:09.502Z,37.33
2022-12-12T07:33:43.515Z,46.07
2022-12-12T07:36:12.441Z,31.83
2022-12-12T07:38:40.575Z,32.57
2022-12-12T07:41:11.790Z,41.13
2022-12-12T07:43:44.171Z,26.33
2022-12-12T07:46:16.277Z,30.87
2022-12-12T07:48:44.652Z,28.07
2022-12-12T07:51:12.920Z,28.13
2022-12-12T07:53:40.980Z,23.33
2022-12-12T07:56:10.627Z,22.10
2022-12-12T07:58:39.279Z,21.50
2022-12-12T08:01:14.342Z,25.87
2022-12-12T08:03:44.874Z,35.47
2022-12-12T08:06:13.586Z,43.43
2022-12-12T08:08:41.641Z,45.67
2022-12-12T08:11:11.351Z,52.60
2022-12-12T08:13:40.498Z,36.90
2022-12-12T08:16:13.743Z,21.90
2022-12-12T08:18:41.595Z,20.20
2022-12-12T08:21:12.053Z,15.87
2022-12-12T08:23:40.308Z,20.67
2022-12-12T08:26:09.969Z,19.73
2022-12-12T08:28:38.995Z,17.97
2022-12-12T08:31:06.891Z,13.77
2022-12-12T08:33:34.915Z,13.13
2022-12-12T08:36:14.352Z,15.60
2022-12-12T08:38:42.511Z,22.57
2022-12-12T08:41:11.483Z,16.43
2022-12-12T08:43:40.103Z,14.87
2022-12-12T08:46:13.833Z,21.40
2022-12-12T08:48:45.194Z,14.17
2022-12-12T08:51:14.663Z,16.80
2022-12-12T08:53:45.058Z,16.57
2022-12-12T08:56:12.906Z,23.80
2022-12-12T08:58:41.029Z,16.97
2022-12-12T09:01:12.259Z,14.10
2022-12-12T09:03:40.890Z,15.17
2022-12-12T09:06:10.216Z,10.23
2022-12-12T09:08:39.820Z,13.47
2022-12-12T09:11:08.193Z,13.90
2022-12-12T09:13:36.560Z,9.70
2022-12-12T09:16:05.152Z,12.47
2022-12-12T09:18:33.075Z,17.53
2022-12-12T09:21:01.125Z,10.50
2022-12-12T09:23:29.453Z,9.70
2022-12-12T09:25:59.088Z,10.03
2022-12-12T09:28:27.755Z,23.50
2022-12-12T09:30:55.784Z,9.50
2022-12-12T09:33:23.679Z,6.73
2022-12-12T09:35:59.911Z,6.10
2022-12-12T09:38:28.797Z,4.60
2022-12-12T09:41:00.271Z,7.93
2022-12-12T09:43:31.124Z,5.27
2022-12-12T09:45:59.976Z,5.87
2022-12-12T09:48:36.609Z,7.10
2022-12-12T09:51:05.018Z,12.37
2022-12-12T09:53:32.941Z,6.07
2022-12-12T09:56:09.154Z,6.50
2022-12-12T09:58:49.119Z,6.07
2022-12-12T10:01:24.754Z,15.30
2022-12-12T10:04:04.516Z,5.00
2022-12-12T10:06:39.774Z,4.57
2022-12-12T10:09:24.064Z,8.90
2022-12-12T10:11:55.321Z,4.57
2022-12-12T10:14:29.021Z,4.83
2022-12-12T10:16:59.366Z,9.67
2022-12-12T10:19:30.770Z,11.13
2022-12-12T10:22:04.756Z,9.10
2022-12-12T10:24:38.130Z,11.23
2022-12-12T10:27:12.411Z,10.63
2022-12-12T10:29:44.552Z,9.37
2022-12-12T10:32:18.541Z,16.53
2022-12-12T10:35:00.079Z,14.43
2022-12-12T10:37:39.120Z,17.40
2022-12-12T10:40:20.488Z,14.07
2022-12-12T10:42:56.354Z,19.63
2022-12-12T10:45:38.281Z,19.30
2022-12-12T10:48:06.663Z,19.67
2022-12-12T10:50:38.039Z,25.43
2022-12-12T10:53:08.765Z,24.13
2022-12-12T10:55:42.937Z,20.03
2022-12-12T10:58:12.554Z,22.23
2022-12-12T11:00:42.654Z,19.50
2022-12-12T11:03:22.172Z,22.43
2022-12-12T11:05:50.556Z,21.07
2022-12-12T11:08:26.778Z,17.90
2022-12-12T11:11:04.421Z,25.67
2022-12-12T11:13:40.926Z,33.00
2022-12-12T11:16:13.939Z,28.83
2022-12-12T11:18:42.034Z,20.90
2022-12-12T11:21:11.815Z,24.50
2022-12-12T11:23:42.352Z,22.37
2022-12-12T11:26:15.099Z,23.93
2022-12-12T11:28:46.245Z,24.67
2022-12-12T11:31:17.150Z,57.97
2022-12-12T11:33:49.007Z,27.70
2022-12-12T11:36:20.025Z,22.33
2022-12-12T11:38:51.103Z,26.67
2022-12-12T11:41:19.130Z,21.07
2022-12-12T11:44:01.233Z,21.93
2022-12-12T11:46:31.073Z,26.63
2022-12-12T11:49:01.509Z,24.03
2022-12-12T11:51:35.795Z,21.63
2022-12-12T11:54:06.004Z,25.70
2022-12-12T11:56:44.574Z,35.23
2022-12-12T11:59:30.231Z,28.20
2022-12-12T12:02:06.462Z,26.73
2022-12-12T12:04:52.867Z,19.07
2022-12-12T12:07:44.775Z,26.60
2022-12-12T12:10:24.108Z,26.43
2022-12-12T12:13:00.347Z,25.43
2022-12-12T12:15:39.181Z,27.47
2022-12-12T12:18:36.486Z,33.50
2022-12-12T12:21:33.244Z,23.13
2022-12-12T12:24:15.290Z,23.00
2022-12-12T12:26:52.771Z,36.23
2022-12-12T12:29:45.196Z,23.57
2022-12-12T12:32:23.003Z,23.27
2022-12-12T12:35:04.331Z,20.20
2022-12-12T12:37:46.507Z,27.83
2022-12-12T12:40:27.974Z,31.80
2022-12-12T12:43:11.339Z,25.93
2022-12-12T12:45:46.432Z,27.10
2022-12-12T12:48:21.506Z,29.23
2022-12-12T12:50:53.862Z,21.63
2022-12-12T12:53:30.487Z,26.17
2022-12-12T12:56:02.323Z,22.27
2022-12-12T12:58:34.916Z,23.67
2022-12-12T13:01:09.207Z,23.07
2022-12-12T13:03:46.621Z,20.67
2022-12-12T13:06:22.057Z,24.07
2022-12-12T13:08:58.247Z,27.00
2022-12-12T13:11:32.782Z,25.13
2022-12-12T13:14:08.342Z,22.60
2022-12-12T13:16:36.483Z,25.27
2022-12-12T13:19:11.918Z,31.67
2022-12-12T13:21:47.698Z,20.93
2022-12-12T13:24:22.835Z,22.63
2022-12-12T13:26:59.048Z,21.73
2022-12-12T13:29:34.411Z,21.20
2022-12-12T13:32:23.519Z,24.63
2022-12-12T13:34:57.263Z,28.43
2022-12-12T13:37:25.264Z,23.17
2022-12-12T13:40:00.934Z,26.20
2022-12-12T13:42:53.549Z,24.23
2022-12-12T13:45:43.841Z,28.40
2022-12-12T13:48:35.253Z,28.37
2022-12-12T13:51:39.878Z,25.93
2022-12-12T13:54:54.623Z,26.20
2022-12-12T13:57:29.297Z,22.47
2022-12-12T14:00:24.212Z,25.70
2022-12-12T14:03:02.117Z,28.23
2022-12-12T14:05:33.957Z,26.33
2022-12-12T14:08:08.219Z,19.83
2022-12-12T14:10:40.448Z,32.70
2022-12-12T14:13:20.419Z,22.10
2022-12-12T14:15:51.084Z,25.13
2022-12-12T14:18:25.849Z,22.60
2022-12-12T14:21:02.190Z,23.27
2022-12-12T14:23:33.853Z,23.13
2022-12-12T14:26:02.399Z,27.50
2022-12-12T14:28:31.803Z,21.87
2022-12-12T14:31:15.737Z,20.83
2022-12-12T14:34:25.903Z,22.57
2022-12-12T14:37:32.690Z,22.80
2022-12-12T14:40:16.335Z,27.17
2022-12-12T14:43:19.725Z,23.57
2022-12-12T14:45:41.449Z,26.57
2022-12-12T14:48:18.384Z,23.50
2022-12-12T14:50:53.574Z,27.23
2022-12-12T14:53:23.983Z,26.30
2022-12-12T14:55:56.870Z,32.73
2022-12-12T14:58:28.373Z,32.50
2022-12-12T15:00:58.792Z,34.67
2022-12-12T15:03:31.763Z,29.20
2022-12-12T15:06:26.741Z,25.57
2022-12-12T15:08:55.271Z,28.20
2022-12-12T15:11:26.703Z,31.23
2022-12-12T15:13:56.171Z,27.60
2022-12-12T15:16:30.653Z,23.53
2022-12-12T15:19:00.779Z,22.43
2022-12-12T15:21:32.007Z,33.13
2022-12-12T15:24:00.466Z,32.53
2022-12-12T15:26:30.770Z,22.47
2022-12-12T15:28:58.995Z,32.47
2022-12-12T15:31:27.071Z,25.87
2022-12-12T15:33:54.993Z,23.73
2022-12-12T15:36:27.894Z,35.53
2022-12-12T15:39:21.128Z,26.37
2022-12-12T15:41:51.018Z,23.80
2022-12-12T15:44:21.886Z,23.60
2022-12-12T15:46:50.814Z,23.57
2022-12-12T15:49:39.354Z,18.53
2022-12-12T15:52:19.010Z,39.47
2022-12-12T15:54:49.680Z,28.10
2022-12-12T15:57:22.993Z,25.87
2022-12-12T15:59:56.356Z,34.53
2022-12-12T16:02:26.592Z,27.10
2022-12-12T16:04:56.403Z,52.30
2022-12-12T16:07:24.968Z,28.00
2022-12-12T16:10:01.019Z,39.23
2022-12-12T16:13:02.184Z,37.70
2022-12-12T16:15:36.793Z,28.73
2022-12-12T16:18:07.804Z,41.47
2022-12-12T16:20:36.215Z,43.73
2022-12-12T16:23:29.947Z,37.10
2022-12-12T16:39:45.496Z,26.50
2022-12-12T16:42:15.397Z,29.60
